sensor_id;sensor_type;location;lat;lon;timestamp;P1;durP1;ratioP1;P2;durP2;ratioP2
76837;SDS011;65797;47.352;8.164;2023-04-24T00:32:50;1.67;;;0.60;;
76837;SDS011;65797;47.352;8.164;2023-04-24T00:35:15;1.13;;;0.50;;
76837;SDS011;65797;47.352;8.164;2023-04-24T00:37:41;0.73;;;0.50;;
76837;SDS011;65797;47.352;8.164;2023-04-24T01:03:58;0.60;;;0.60;;
76837;SDS011;65797;47.352;8.164;2023-04-24T01:06:27;0.50;;;0.50;;
76837;SDS011;65797;47.352;8.164;2023-04-24T01:55:40;0.47;;;0.47;;
76837;SDS011;65797;47.352;8.164;2023-04-24T04:50:16;0.57;;;0.57;;
76837;SDS011;65797;47.352;8.164;2023-04-24T04:52:43;0.60;;;0.60;;
76837;SDS011;65797;47.352;8.164;2023-04-24T04:55:09;0.60;;;0.60;;
76837;SDS011;65797;47.352;8.164;2023-04-24T05:02:47;0.57;;;0.57;;
76837;SDS011;65797;47.352;8.164;2023-04-24T05:05:12;1.37;;;0.77;;
76837;SDS011;65797;47.352;8.164;2023-04-24T05:07:38;0.60;;;0.60;;
76837;SDS011;65797;47.352;8.164;2023-04-24T05:10:04;1.47;;;0.60;;
76837;SDS011;65797;47.352;8.164;2023-04-24T05:12:30;0.60;;;0.60;;
76837;SDS011;65797;47.352;8.164;2023-04-24T05:14:55;0.90;;;0.70;;
76837;SDS011;65797;47.352;8.164;2023-04-24T05:17:21;0.63;;;0.63;;
76837;SDS011;65797;47.352;8.164;2023-04-24T05:24:57;1.13;;;0.60;;
76837;SDS011;65797;47.352;8.164;2023-04-24T05:27:24;1.00;;;0.70;;
76837;SDS011;65797;47.352;8.164;2023-04-24T05:29:49;0.70;;;0.70;;
76837;SDS011;65797;47.352;8.164;2023-04-24T05:32:16;0.83;;;0.80;;
76837;SDS011;65797;47.352;8.164;2023-04-24T05:34:41;0.60;;;0.60;;
76837;SDS011;65797;47.352;8.164;2023-04-24T05:37:07;0.60;;;0.60;;
76837;SDS011;65797;47.352;8.164;2023-04-24T05:52:31;0.70;;;0.70;;
76837;SDS011;65797;47.352;8.164;2023-04-24T05:54:57;0.70;;;0.70;;
76837;SDS011;65797;47.352;8.164;2023-04-24T05:57:23;0.60;;;0.60;;
76837;SDS011;65797;47.352;8.164;2023-04-24T06:12:45;1.10;;;0.80;;
76837;SDS011;65797;47.352;8.164;2023-04-24T06:35:54;2.10;;;0.90;;
76837;SDS011;65797;47.352;8.164;2023-04-24T07:06:49;1.20;;;1.10;;
76837;SDS011;65797;47.352;8.164;2023-04-24T07:09:14;0.90;;;0.90;;
76837;SDS011;65797;47.352;8.164;2023-04-24T07:19:29;1.77;;;1.10;;
76837;SDS011;65797;47.352;8.164;2023-04-24T07:21:55;5.80;;;1.10;;
76837;SDS011;65797;47.352;8.164;2023-04-24T07:34:44;0.90;;;0.90;;
76837;SDS011;65797;47.352;8.164;2023-04-24T07:37:10;3.60;;;1.10;;
76837;SDS011;65797;47.352;8.164;2023-04-24T07:39:36;10.53;;;1.00;;
76837;SDS011;65797;47.352;8.164;2023-04-24T07:42:01;3.23;;;1.20;;
76837;SDS011;65797;47.352;8.164;2023-04-24T07:44:28;2.00;;;0.97;;
76837;SDS011;65797;47.352;8.164;2023-04-24T07:46:54;2.40;;;0.90;;
76837;SDS011;65797;47.352;8.164;2023-04-24T09:28:42;2.43;;;1.17;;
76837;SDS011;65797;47.352;8.164;2023-04-24T09:31:11;1.30;;;1.20;;
76837;SDS011;65797;47.352;8.164;2023-04-24T09:33:39;3.57;;;1.33;;
76837;SDS011;65797;47.352;8.164;2023-04-24T09:36:04;4.00;;;1.60;;
76837;SDS011;65797;47.352;8.164;2023-04-24T09:38:35;1.93;;;1.23;;
76837;SDS011;65797;47.352;8.164;2023-04-24T09:41:06;1.63;;;1.10;;
76837;SDS011;65797;47.352;8.164;2023-04-24T09:43:33;3.33;;;1.47;;
76837;SDS011;65797;47.352;8.164;2023-04-24T09:46:04;1.40;;;1.17;;
76837;SDS011;65797;47.352;8.164;2023-04-24T09:48:35;1.90;;;0.97;;
76837;SDS011;65797;47.352;8.164;2023-04-24T09:51:03;1.90;;;1.53;;
76837;SDS011;65797;47.352;8.164;2023-04-24T09:53:31;2.10;;;1.40;;
76837;SDS011;65797;47.352;8.164;2023-04-24T09:56:10;3.00;;;1.63;;
76837;SDS011;65797;47.352;8.164;2023-04-24T09:58:37;2.93;;;1.50;;
76837;SDS011;65797;47.352;8.164;2023-04-24T10:01:04;1.33;;;1.23;;
76837;SDS011;65797;47.352;8.164;2023-04-24T10:03:30;1.17;;;1.17;;
76837;SDS011;65797;47.352;8.164;2023-04-24T10:06:00;2.80;;;1.20;;
76837;SDS011;65797;47.352;8.164;2023-04-24T10:11:02;1.30;;;1.20;;
76837;SDS011;65797;47.352;8.164;2023-04-24T10:16:03;2.53;;;1.40;;
76837;SDS011;65797;47.352;8.164;2023-04-24T10:18:29;3.17;;;1.43;;
76837;SDS011;65797;47.352;8.164;2023-04-24T10:20:55;2.47;;;1.30;;
76837;SDS011;65797;47.352;8.164;2023-04-24T10:23:22;7.17;;;1.43;;
76837;SDS011;65797;47.352;8.164;2023-04-24T10:25:50;1.43;;;1.33;;
76837;SDS011;65797;47.352;8.164;2023-04-24T10:28:17;1.87;;;1.37;;
76837;SDS011;65797;47.352;8.164;2023-04-24T10:30:44;2.90;;;1.33;;
76837;SDS011;65797;47.352;8.164;2023-04-24T10:33:11;1.70;;;1.40;;
76837;SDS011;65797;47.352;8.164;2023-04-24T10:35:39;1.90;;;1.20;;
76837;SDS011;65797;47.352;8.164;2023-04-24T10:38:17;2.33;;;1.47;;
76837;SDS011;65797;47.352;8.164;2023-04-24T10:40:49;2.60;;;1.20;;
76837;SDS011;65797;47.352;8.164;2023-04-24T10:43:16;4.37;;;1.50;;
76837;SDS011;65797;47.352;8.164;2023-04-24T10:45:59;3.37;;;1.37;;
76837;SDS011;65797;47.352;8.164;2023-04-24T10:48:27;3.37;;;1.50;;
76837;SDS011;65797;47.352;8.164;2023-04-24T10:50:53;2.30;;;1.17;;
76837;SDS011;65797;47.352;8.164;2023-04-24T10:53:22;1.50;;;1.40;;
76837;SDS011;65797;47.352;8.164;2023-04-24T10:56:07;2.13;;;1.70;;
76837;SDS011;65797;47.352;8.164;2023-04-24T11:01:09;2.27;;;1.17;;
76837;SDS011;65797;47.352;8.164;2023-04-24T11:03:55;2.10;;;1.37;;
76837;SDS011;65797;47.352;8.164;2023-04-24T11:06:32;2.60;;;1.27;;
76837;SDS011;65797;47.352;8.164;2023-04-24T11:09:07;3.67;;;1.00;;
76837;SDS011;65797;47.352;8.164;2023-04-24T11:11:35;2.60;;;1.40;;
76837;SDS011;65797;47.352;8.164;2023-04-24T11:14:05;1.80;;;1.37;;
76837;SDS011;65797;47.352;8.164;2023-04-24T11:16:33;1.10;;;1.00;;
76837;SDS011;65797;47.352;8.164;2023-04-24T11:19:26;1.40;;;1.27;;
76837;SDS011;65797;47.352;8.164;2023-04-24T11:22:03;5.93;;;1.20;;
76837;SDS011;65797;47.352;8.164;2023-04-24T11:24:40;1.50;;;1.40;;
76837;SDS011;65797;47.352;8.164;2023-04-24T11:27:13;2.37;;;1.40;;
76837;SDS011;65797;47.352;8.164;2023-04-24T11:32:41;4.00;;;1.50;;
76837;SDS011;65797;47.352;8.164;2023-04-24T11:35:15;1.80;;;1.43;;
76837;SDS011;65797;47.352;8.164;2023-04-24T11:37:52;1.20;;;1.10;;
76837;SDS011;65797;47.352;8.164;2023-04-24T11:40:20;3.93;;;1.60;;
76837;SDS011;65797;47.352;8.164;2023-04-24T11:42:48;2.10;;;1.00;;
76837;SDS011;65797;47.352;8.164;2023-04-24T11:45:27;1.47;;;1.10;;
76837;SDS011;65797;47.352;8.164;2023-04-24T11:47:53;1.20;;;1.10;;
76837;SDS011;65797;47.352;8.164;2023-04-24T11:50:21;1.90;;;1.27;;
76837;SDS011;65797;47.352;8.164;2023-04-24T11:52:48;1.60;;;1.50;;
76837;SDS011;65797;47.352;8.164;2023-04-24T11:57:44;3.40;;;1.60;;
76837;SDS011;65797;47.352;8.164;2023-04-24T12:00:19;1.30;;;1.20;;
76837;SDS011;65797;47.352;8.164;2023-04-24T12:02:49;2.60;;;1.60;;
76837;SDS011;65797;47.352;8.164;2023-04-24T12:05:26;2.17;;;1.47;;
76837;SDS011;65797;47.352;8.164;2023-04-24T12:07:53;5.27;;;1.33;;
76837;SDS011;65797;47.352;8.164;2023-04-24T12:10:22;1.93;;;1.20;;
76837;SDS011;65797;47.352;8.164;2023-04-24T12:12:50;5.60;;;1.20;;
76837;SDS011;65797;47.352;8.164;2023-04-24T12:15:17;2.90;;;1.30;;
76837;SDS011;65797;47.352;8.164;2023-04-24T12:17:44;2.30;;;1.10;;
76837;SDS011;65797;47.352;8.164;2023-04-24T12:20:10;1.33;;;1.23;;
76837;SDS011;65797;47.352;8.164;2023-04-24T12:22:47;1.10;;;1.00;;
76837;SDS011;65797;47.352;8.164;2023-04-24T12:25:20;1.40;;;1.40;;
76837;SDS011;65797;47.352;8.164;2023-04-24T12:27:52;1.70;;;1.10;;
76837;SDS011;65797;47.352;8.164;2023-04-24T12:30:18;1.20;;;1.10;;
76837;SDS011;65797;47.352;8.164;2023-04-24T12:32:48;1.60;;;1.10;;
76837;SDS011;65797;47.352;8.164;2023-04-24T12:35:24;1.80;;;0.90;;
76837;SDS011;65797;47.352;8.164;2023-04-24T12:37:52;1.43;;;1.17;;
76837;SDS011;65797;47.352;8.164;2023-04-24T12:40:18;1.93;;;1.13;;
76837;SDS011;65797;47.352;8.164;2023-04-24T12:42:49;2.97;;;1.50;;
76837;SDS011;65797;47.352;8.164;2023-04-24T12:45:17;1.13;;;1.03;;
76837;SDS011;65797;47.352;8.164;2023-04-24T12:47:44;4.27;;;1.63;;
76837;SDS011;65797;47.352;8.164;2023-04-24T12:50:11;2.80;;;1.20;;
76837;SDS011;65797;47.352;8.164;2023-04-24T12:52:38;3.43;;;1.20;;
76837;SDS011;65797;47.352;8.164;2023-04-24T12:55:05;1.43;;;1.20;;
76837;SDS011;65797;47.352;8.164;2023-04-24T12:57:33;1.60;;;1.20;;
76837;SDS011;65797;47.352;8.164;2023-04-24T13:00:00;0.70;;;0.70;;
76837;SDS011;65797;47.352;8.164;2023-04-24T13:02:27;3.27;;;2.00;;
76837;SDS011;65797;47.352;8.164;2023-04-24T13:04:55;2.83;;;1.20;;
76837;SDS011;65797;47.352;8.164;2023-04-24T13:07:22;0.93;;;0.93;;
76837;SDS011;65797;47.352;8.164;2023-04-24T13:09:48;2.10;;;0.93;;
76837;SDS011;65797;47.352;8.164;2023-04-24T13:12:15;1.27;;;1.17;;
76837;SDS011;65797;47.352;8.164;2023-04-24T13:14:41;3.53;;;0.90;;
76837;SDS011;65797;47.352;8.164;2023-04-24T13:17:07;1.13;;;1.00;;
76837;SDS011;65797;47.352;8.164;2023-04-24T13:19:37;2.00;;;0.80;;
76837;SDS011;65797;47.352;8.164;2023-04-24T13:22:05;1.37;;;1.20;;
76837;SDS011;65797;47.352;8.164;2023-04-24T13:24:31;1.20;;;1.20;;
76837;SDS011;65797;47.352;8.164;2023-04-24T13:26:58;4.17;;;1.10;;
76837;SDS011;65797;47.352;8.164;2023-04-24T13:29:25;1.40;;;1.00;;
76837;SDS011;65797;47.352;8.164;2023-04-24T13:31:51;3.47;;;1.50;;
76837;SDS011;65797;47.352;8.164;2023-04-24T13:34:24;4.20;;;1.30;;
76837;SDS011;65797;47.352;8.164;2023-04-24T13:36:52;2.20;;;1.30;;
76837;SDS011;65797;47.352;8.164;2023-04-24T13:39:18;3.37;;;1.90;;
76837;SDS011;65797;47.352;8.164;2023-04-24T13:41:44;4.93;;;1.70;;
76837;SDS011;65797;47.352;8.164;2023-04-24T13:44:12;4.37;;;1.23;;
76837;SDS011;65797;47.352;8.164;2023-04-24T13:46:37;5.07;;;1.73;;
76837;SDS011;65797;47.352;8.164;2023-04-24T13:49:03;1.83;;;1.33;;
76837;SDS011;65797;47.352;8.164;2023-04-24T13:51:29;2.20;;;1.87;;
76837;SDS011;65797;47.352;8.164;2023-04-24T13:53:55;2.20;;;1.50;;
76837;SDS011;65797;47.352;8.164;2023-04-24T13:56:21;1.50;;;1.40;;
76837;SDS011;65797;47.352;8.164;2023-04-24T13:58:47;4.97;;;1.50;;
76837;SDS011;65797;47.352;8.164;2023-04-24T14:01:14;3.60;;;1.40;;
76837;SDS011;65797;47.352;8.164;2023-04-24T14:03:40;1.47;;;1.37;;
76837;SDS011;65797;47.352;8.164;2023-04-24T14:06:06;2.60;;;1.33;;
76837;SDS011;65797;47.352;8.164;2023-04-24T14:08:32;6.87;;;1.37;;
76837;SDS011;65797;47.352;8.164;2023-04-24T14:10:58;2.03;;;1.37;;
76837;SDS011;65797;47.352;8.164;2023-04-24T14:13:24;1.63;;;1.47;;
76837;SDS011;65797;47.352;8.164;2023-04-24T14:15:50;6.53;;;1.80;;
76837;SDS011;65797;47.352;8.164;2023-04-24T14:18:17;5.20;;;1.60;;
76837;SDS011;65797;47.352;8.164;2023-04-24T14:20:43;2.87;;;1.77;;
76837;SDS011;65797;47.352;8.164;2023-04-24T14:23:09;2.90;;;1.37;;
76837;SDS011;65797;47.352;8.164;2023-04-24T14:25:35;1.50;;;1.40;;
76837;SDS011;65797;47.352;8.164;2023-04-24T14:28:00;2.17;;;1.17;;
76837;SDS011;65797;47.352;8.164;2023-04-24T14:30:26;5.43;;;1.43;;
76837;SDS011;65797;47.352;8.164;2023-04-24T14:32:52;2.63;;;1.00;;
76837;SDS011;65797;47.352;8.164;2023-04-24T14:35:17;1.60;;;1.50;;
76837;SDS011;65797;47.352;8.164;2023-04-24T14:37:43;1.67;;;1.23;;
76837;SDS011;65797;47.352;8.164;2023-04-24T14:40:09;1.30;;;1.20;;
76837;SDS011;65797;47.352;8.164;2023-04-24T14:42:35;2.10;;;1.23;;
76837;SDS011;65797;47.352;8.164;2023-04-24T14:45:01;1.33;;;1.20;;
76837;SDS011;65797;47.352;8.164;2023-04-24T14:47:27;1.20;;;1.10;;
76837;SDS011;65797;47.352;8.164;2023-04-24T14:49:54;1.10;;;1.00;;
76837;SDS011;65797;47.352;8.164;2023-04-24T14:52:20;0.93;;;0.93;;
76837;SDS011;65797;47.352;8.164;2023-04-24T14:54:46;1.27;;;1.00;;
76837;SDS011;65797;47.352;8.164;2023-04-24T14:57:12;2.43;;;0.90;;
76837;SDS011;65797;47.352;8.164;2023-04-24T14:59:38;1.40;;;1.20;;
76837;SDS011;65797;47.352;8.164;2023-04-24T15:02:04;1.20;;;1.03;;
76837;SDS011;65797;47.352;8.164;2023-04-24T15:04:30;1.33;;;1.23;;
76837;SDS011;65797;47.352;8.164;2023-04-24T15:06:56;4.20;;;1.30;;
76837;SDS011;65797;47.352;8.164;2023-04-24T15:09:22;3.27;;;1.10;;
76837;SDS011;65797;47.352;8.164;2023-04-24T15:11:50;2.47;;;1.20;;
76837;SDS011;65797;47.352;8.164;2023-04-24T15:14:16;1.97;;;1.00;;
76837;SDS011;65797;47.352;8.164;2023-04-24T15:16:42;3.70;;;1.60;;
76837;SDS011;65797;47.352;8.164;2023-04-24T15:19:08;2.13;;;1.20;;
76837;SDS011;65797;47.352;8.164;2023-04-24T15:26:45;1.67;;;1.03;;
76837;SDS011;65797;47.352;8.164;2023-04-24T15:29:11;2.23;;;1.10;;
76837;SDS011;65797;47.352;8.164;2023-04-24T15:31:36;1.20;;;1.10;;
76837;SDS011;65797;47.352;8.164;2023-04-24T15:34:05;1.47;;;1.27;;
76837;SDS011;65797;47.352;8.164;2023-04-24T15:36:31;0.97;;;0.97;;
76837;SDS011;65797;47.352;8.164;2023-04-24T15:44:08;1.40;;;1.30;;
76837;SDS011;65797;47.352;8.164;2023-04-24T15:46:36;3.03;;;1.77;;
76837;SDS011;65797;47.352;8.164;2023-04-24T15:49:02;2.70;;;1.30;;
76837;SDS011;65797;47.352;8.164;2023-04-24T15:51:28;2.10;;;1.10;;
76837;SDS011;65797;47.352;8.164;2023-04-24T15:53:53;2.30;;;1.20;;
76837;SDS011;65797;47.352;8.164;2023-04-24T15:56:19;2.17;;;1.20;;
76837;SDS011;65797;47.352;8.164;2023-04-24T15:58:46;1.40;;;1.30;;
76837;SDS011;65797;47.352;8.164;2023-04-24T16:01:12;4.07;;;1.27;;
76837;SDS011;65797;47.352;8.164;2023-04-24T16:03:37;1.30;;;1.20;;
76837;SDS011;65797;47.352;8.164;2023-04-24T16:06:03;2.30;;;1.57;;
76837;SDS011;65797;47.352;8.164;2023-04-24T16:08:29;1.17;;;1.10;;
76837;SDS011;65797;47.352;8.164;2023-04-24T16:10:55;1.50;;;1.40;;
76837;SDS011;65797;47.352;8.164;2023-04-24T16:13:20;1.37;;;1.20;;
76837;SDS011;65797;47.352;8.164;2023-04-24T16:15:46;5.13;;;1.73;;
76837;SDS011;65797;47.352;8.164;2023-04-24T16:18:12;2.40;;;1.77;;
76837;SDS011;65797;47.352;8.164;2023-04-24T16:20:37;1.93;;;1.33;;
76837;SDS011;65797;47.352;8.164;2023-04-24T16:23:03;2.40;;;1.57;;
76837;SDS011;65797;47.352;8.164;2023-04-24T16:25:29;4.73;;;1.43;;
76837;SDS011;65797;47.352;8.164;2023-04-24T16:27:55;1.43;;;1.33;;
76837;SDS011;65797;47.352;8.164;2023-04-24T16:30:21;3.50;;;1.50;;
76837;SDS011;65797;47.352;8.164;2023-04-24T16:32:47;2.00;;;1.77;;
76837;SDS011;65797;47.352;8.164;2023-04-24T16:35:12;2.00;;;1.50;;
76837;SDS011;65797;47.352;8.164;2023-04-24T16:37:38;2.07;;;1.80;;
76837;SDS011;65797;47.352;8.164;2023-04-24T16:40:04;1.60;;;1.50;;
76837;SDS011;65797;47.352;8.164;2023-04-24T16:42:34;2.13;;;1.77;;
76837;SDS011;65797;47.352;8.164;2023-04-24T16:45:00;1.60;;;1.50;;
76837;SDS011;65797;47.352;8.164;2023-04-24T16:47:26;3.03;;;1.40;;
76837;SDS011;65797;47.352;8.164;2023-04-24T16:49:52;1.50;;;1.40;;
76837;SDS011;65797;47.352;8.164;2023-04-24T16:52:18;1.80;;;1.70;;
76837;SDS011;65797;47.352;8.164;2023-04-24T16:54:44;2.50;;;1.50;;
76837;SDS011;65797;47.352;8.164;2023-04-24T16:57:10;1.80;;;1.70;;
76837;SDS011;65797;47.352;8.164;2023-04-24T16:59:37;2.57;;;1.73;;
76837;SDS011;65797;47.352;8.164;2023-04-24T17:04:04;2.80;;;1.97;;
76837;SDS011;65797;47.352;8.164;2023-04-24T17:06:30;2.03;;;1.83;;
76837;SDS011;65797;47.352;8.164;2023-04-24T17:11:31;2.13;;;1.93;;
76837;SDS011;65797;47.352;8.164;2023-04-24T17:13:57;1.90;;;1.60;;
76837;SDS011;65797;47.352;8.164;2023-04-24T17:16:25;1.80;;;1.50;;
76837;SDS011;65797;47.352;8.164;2023-04-24T17:18:51;1.50;;;1.40;;
76837;SDS011;65797;47.352;8.164;2023-04-24T17:21:17;1.50;;;1.30;;
76837;SDS011;65797;47.352;8.164;2023-04-24T17:23:43;1.93;;;1.50;;
76837;SDS011;65797;47.352;8.164;2023-04-24T17:26:08;1.87;;;1.40;;
76837;SDS011;65797;47.352;8.164;2023-04-24T17:28:34;3.00;;;1.90;;
76837;SDS011;65797;47.352;8.164;2023-04-24T17:31:00;5.37;;;2.20;;
76837;SDS011;65797;47.352;8.164;2023-04-24T17:33:27;7.30;;;1.60;;
76837;SDS011;65797;47.352;8.164;2023-04-24T17:35:54;6.93;;;1.30;;
76837;SDS011;65797;47.352;8.164;2023-04-24T17:38:22;4.03;;;1.57;;
76837;SDS011;65797;47.352;8.164;2023-04-24T17:40:48;3.80;;;1.80;;
76837;SDS011;65797;47.352;8.164;2023-04-24T17:43:21;1.73;;;1.63;;
76837;SDS011;65797;47.352;8.164;2023-04-24T17:45:48;5.80;;;1.60;;
76837;SDS011;65797;47.352;8.164;2023-04-24T17:48:15;2.83;;;1.60;;
76837;SDS011;65797;47.352;8.164;2023-04-24T17:50:42;4.53;;;1.83;;
76837;SDS011;65797;47.352;8.164;2023-04-24T17:53:08;3.43;;;1.63;;
76837;SDS011;65797;47.352;8.164;2023-04-24T17:55:37;8.80;;;1.93;;
76837;SDS011;65797;47.352;8.164;2023-04-24T17:58:04;3.07;;;1.83;;
76837;SDS011;65797;47.352;8.164;2023-04-24T18:00:30;1.73;;;1.50;;
76837;SDS011;65797;47.352;8.164;2023-04-24T18:02:57;3.20;;;1.60;;
76837;SDS011;65797;47.352;8.164;2023-04-24T18:05:26;3.97;;;1.60;;
76837;SDS011;65797;47.352;8.164;2023-04-24T18:07:53;4.53;;;1.30;;
76837;SDS011;65797;47.352;8.164;2023-04-24T18:10:19;6.00;;;2.00;;
76837;SDS011;65797;47.352;8.164;2023-04-24T18:12:45;3.60;;;2.10;;
76837;SDS011;65797;47.352;8.164;2023-04-24T18:15:11;2.23;;;2.03;;
76837;SDS011;65797;47.352;8.164;2023-04-24T18:17:37;1.80;;;1.70;;
76837;SDS011;65797;47.352;8.164;2023-04-24T18:20:03;1.60;;;1.50;;
76837;SDS011;65797;47.352;8.164;2023-04-24T18:22:29;1.60;;;1.50;;
76837;SDS011;65797;47.352;8.164;2023-04-24T18:24:55;2.00;;;1.80;;
76837;SDS011;65797;47.352;8.164;2023-04-24T18:27:21;3.63;;;1.80;;
76837;SDS011;65797;47.352;8.164;2023-04-24T18:29:49;1.83;;;1.50;;
76837;SDS011;65797;47.352;8.164;2023-04-24T18:32:16;8.60;;;1.93;;
76837;SDS011;65797;47.352;8.164;2023-04-24T19:37:20;2.33;;;1.77;;
76837;SDS011;65797;47.352;8.164;2023-04-24T19:39:46;4.77;;;1.63;;
76837;SDS011;65797;47.352;8.164;2023-04-24T19:42:11;3.33;;;1.40;;
76837;SDS011;65797;47.352;8.164;2023-04-24T19:44:37;3.90;;;1.50;;
76837;SDS011;65797;47.352;8.164;2023-04-24T19:47:03;2.10;;;1.47;;
76837;SDS011;65797;47.352;8.164;2023-04-24T19:49:29;9.33;;;1.67;;
76837;SDS011;65797;47.352;8.164;2023-04-24T19:51:54;2.00;;;1.63;;
76837;SDS011;65797;47.352;8.164;2023-04-24T19:54:20;4.43;;;1.90;;
76837;SDS011;65797;47.352;8.164;2023-04-24T19:56:46;2.90;;;1.50;;
76837;SDS011;65797;47.352;8.164;2023-04-24T19:59:12;2.40;;;1.60;;
76837;SDS011;65797;47.352;8.164;2023-04-24T20:01:37;5.57;;;2.70;;
76837;SDS011;65797;47.352;8.164;2023-04-24T20:04:07;2.00;;;1.70;;
76837;SDS011;65797;47.352;8.164;2023-04-24T20:06:35;4.00;;;1.70;;
76837;SDS011;65797;47.352;8.164;2023-04-24T20:09:01;1.97;;;1.80;;
76837;SDS011;65797;47.352;8.164;2023-04-24T20:11:29;3.10;;;1.70;;
76837;SDS011;65797;47.352;8.164;2023-04-24T20:13:55;11.07;;;2.60;;
76837;SDS011;65797;47.352;8.164;2023-04-24T20:16:21;6.13;;;1.60;;
76837;SDS011;65797;47.352;8.164;2023-04-24T20:18:47;10.20;;;2.93;;
76837;SDS011;65797;47.352;8.164;2023-04-24T20:21:13;5.30;;;2.17;;
76837;SDS011;65797;47.352;8.164;2023-04-24T20:23:38;2.10;;;1.90;;
76837;SDS011;65797;47.352;8.164;2023-04-24T20:26:04;2.07;;;1.97;;
76837;SDS011;65797;47.352;8.164;2023-04-24T20:28:32;4.73;;;2.00;;
